Thompson, CT

7:06 AM EST on March 04, 2015 (GMT -0500)
Tufts Hill | Change Station
CLOSE
Current Station
Personal Weather Station
Location: Dudley, MA
Elevation: 594 ft
Nearby Weather Stations

Elev 594 ft 42.03 °N, 71.92 °W | Updated 10 seconds ago

Overcast
Overcast
34.0 °F
Feels Like 34 °F
N
0.0
Wind Variable Wind from SW
Gusts 5.0 mph

Today
High -- | Low -- °F
--% Chance of Precip.
Yesterday
High -- | Low -- °F
Precip. -- in
6:18 AM 5:41 PM
Waxing Gibbous, 99% visible
Pressure 29.70 in
Visibility 10.0 miles
Clouds Overcast 10000 ft
Windchill 34 °F
Dew Point 33 °F
Humidity 95%
Rainfall 0.14 in
Snow Depth Not available.
UV 0 out of 12
Pollen .40 out of 12
Air Quality Not available.
Flu Activity Not available.
METAR KORH 041154Z 27016G25KT 10SM OVC100 01/00 A2965 RMK AO2 PK WND 27026/1059 SLP055 60001 70058 T00110000 10017 20006 53018

More Conditions Fewer Conditions

Pressure 29.70 in
Visibility 10.0 miles
Clouds Overcast 10000 ft
Windchill 34 °F
Dew Point 33 °F
Humidity 95%
Rainfall 0.14 in
Snow Depth Not available.
UV 0 out of 12
Pollen .40 out of 12
Air Quality Not available.
Flu Activity Not available.
METAR KORH 041154Z 27016G25KT 10SM OVC100 01/00 A2965 RMK AO2 PK WND 27026/1059 SLP055 60001 70058 T00110000 10017 20006 53018

More Conditions Fewer Conditions

10-Day Weather Forecast

Almanac

Astronomy

Mar. 04, 2015 Rise Set
Actual Time
Civil Twilight
Nautical Twilight
Astronomical Twilight
Moon
Length of Visible Light
Length of Day
Tomorrow will be .
, % of the Moon is Illuminated

Today's Extremes

State Highs State Lows

Community

WunderPhotos

Upload Photos

1,802,436 photos uploaded!

WunderBlogs® & News

Nearby

Air Quality

  Air Quality AQ Index Pollutant
Not available.

Snow Depth

Station Depth Elevation

Earthquake Activity

City Distance Mag. Time & Date
Minimum magnitude displayed is 2.5.

Coastal Water Temperatures

Place Temperature

Nearby Weather Stations